createdAt,value
2016-11-20T00:00:50.376Z,984.1
2016-11-20T00:01:50.405Z,984.11
2016-11-20T00:02:50.421Z,984.07
2016-11-20T00:03:50.454Z,984.03
2016-11-20T00:04:50.487Z,983.99
2016-11-20T00:05:50.512Z,983.95
2016-11-20T00:06:50.537Z,983.98
2016-11-20T00:07:50.565Z,983.97
2016-11-20T00:08:50.594Z,983.92
2016-11-20T00:09:50.620Z,983.92
2016-11-20T00:10:50.652Z,983.9
2016-11-20T00:11:50.677Z,983.87
2016-11-20T00:12:50.701Z,983.92
2016-11-20T00:13:50.734Z,983.95
2016-11-20T00:14:50.760Z,983.9
2016-11-20T00:15:50.795Z,983.91
2016-11-20T00:16:50.816Z,983.88
2016-11-20T00:17:50.845Z,983.9
2016-11-20T00:18:50.873Z,983.91
2016-11-20T00:19:50.894Z,983.88
2016-11-20T00:20:50.923Z,983.84
2016-11-20T00:21:50.953Z,983.81
2016-11-20T00:22:50.984Z,983.83
2016-11-20T00:23:51.009Z,983.8
2016-11-20T00:24:51.036Z,983.8
2016-11-20T00:25:51.067Z,983.74
2016-11-20T00:26:51.088Z,983.75
2016-11-20T00:27:51.117Z,983.72
2016-11-20T00:28:51.151Z,983.66
2016-11-20T00:29:51.177Z,983.64
2016-11-20T00:30:51.200Z,983.67
2016-11-20T00:31:51.227Z,983.6
2016-11-20T00:32:51.259Z,983.54
2016-11-20T00:33:51.289Z,983.51
2016-11-20T00:34:51.313Z,983.45
2016-11-20T00:35:51.338Z,983.48
2016-11-20T00:36:51.367Z,983.47
2016-11-20T00:37:51.403Z,983.47
2016-11-20T00:38:51.419Z,983.41
2016-11-20T00:39:51.448Z,983.37
2016-11-20T00:40:51.477Z,983.35
2016-11-20T00:41:51.505Z,983.3
2016-11-20T00:42:51.535Z,983.27
2016-11-20T00:43:51.560Z,983.21
2016-11-20T00:44:51.583Z,983.24
2016-11-20T00:45:51.613Z,983.23
2016-11-20T00:46:51.643Z,983.2
2016-11-20T00:47:51.664Z,983.17
2016-11-20T00:48:51.696Z,983.13
2016-11-20T00:49:51.723Z,983.05
2016-11-20T00:50:51.759Z,982.99
2016-11-20T00:51:51.785Z,982.91
2016-11-20T00:52:51.806Z,982.91
2016-11-20T00:53:51.834Z,982.91
2016-11-20T00:54:51.863Z,982.84
2016-11-20T00:55:51.887Z,982.84
2016-11-20T00:56:51.919Z,982.77
2016-11-20T00:57:51.947Z,982.74
2016-11-20T00:58:51.973Z,982.7
2016-11-20T00:59:51.998Z,982.68
2016-11-20T01:00:52.027Z,982.64
2016-11-20T01:01:52.056Z,982.62
2016-11-20T01:02:52.080Z,982.59
2016-11-20T01:03:52.111Z,982.59
2016-11-20T01:04:52.133Z,982.57
2016-11-20T01:05:52.167Z,982.54
2016-11-20T01:06:52.195Z,982.51
2016-11-20T01:07:52.219Z,982.49
2016-11-20T01:08:52.244Z,982.42
2016-11-20T01:09:52.277Z,982.4
2016-11-20T01:10:52.302Z,982.39
2016-11-20T01:11:52.326Z,982.39
2016-11-20T01:12:52.354Z,982.36
2016-11-20T01:13:52.388Z,982.39
2016-11-20T01:14:52.412Z,982.4
2016-11-20T01:15:52.442Z,982.38
2016-11-20T01:16:52.466Z,982.41
2016-11-20T01:17:52.491Z,982.43
2016-11-20T01:18:52.523Z,982.43
2016-11-20T01:19:52.553Z,982.44
2016-11-20T01:20:52.573Z,982.45
2016-11-20T01:21:52.610Z,982.43
2016-11-20T01:22:52.630Z,982.45
2016-11-20T01:23:52.659Z,982.46
2016-11-20T01:24:52.683Z,982.45
2016-11-20T01:25:52.713Z,982.43
2016-11-20T01:26:52.740Z,982.45
2016-11-20T01:27:52.763Z,982.42
2016-11-20T01:28:52.799Z,982.38
2016-11-20T01:29:52.823Z,982.34
2016-11-20T01:30:52.848Z,982.3
2016-11-20T01:31:52.877Z,982.28
2016-11-20T01:32:52.901Z,982.23
2016-11-20T01:33:52.931Z,982.17
2016-11-20T01:34:52.959Z,982.18
2016-11-20T01:35:52.983Z,982.18
2016-11-20T01:36:53.012Z,982.18
2016-11-20T01:37:53.041Z,982.21
2016-11-20T01:38:53.069Z,982.17
2016-11-20T01:39:53.098Z,982.21
2016-11-20T01:40:53.120Z,982.24
2016-11-20T01:41:53.153Z,982.18
2016-11-20T01:42:53.177Z,982.2
2016-11-20T01:43:53.205Z,982.16
2016-11-20T01:44:53.230Z,982.15
2016-11-20T01:45:53.267Z,982.12
2016-11-20T01:46:53.291Z,982.1
2016-11-20T01:47:53.313Z,982.05
2016-11-20T01:48:53.344Z,982.06
2016-11-20T01:49:53.369Z,982.09
2016-11-20T01:50:53.394Z,982.02
2016-11-20T01:51:53.419Z,982.02
2016-11-20T01:52:53.443Z,982.04
2016-11-20T01:53:53.476Z,982.06
2016-11-20T01:54:53.500Z,982.1
2016-11-20T01:55:53.542Z,982.09
2016-11-20T01:56:53.554Z,982.06
2016-11-20T01:57:53.592Z,982.03
2016-11-20T01:58:53.616Z,981.99
2016-11-20T01:59:53.646Z,981.95
2016-11-20T02:00:53.670Z,981.94
2016-11-20T02:01:53.693Z,981.96
2016-11-20T02:02:53.719Z,981.89
2016-11-20T02:03:53.753Z,981.89
2016-11-20T02:04:53.780Z,981.83
2016-11-20T02:05:53.811Z,981.84
2016-11-20T02:06:53.838Z,981.82
2016-11-20T02:07:53.859Z,981.88
2016-11-20T02:08:53.892Z,981.78
2016-11-20T02:09:53.913Z,981.84
2016-11-20T02:10:53.946Z,981.81
2016-11-20T02:11:53.979Z,981.78
2016-11-20T02:12:53.995Z,981.78
2016-11-20T02:13:54.020Z,981.73
2016-11-20T02:14:54.048Z,981.75
2016-11-20T02:15:54.073Z,981.78
2016-11-20T02:16:54.106Z,981.77
2016-11-20T02:17:54.136Z,981.73
2016-11-20T02:18:54.164Z,981.72
2016-11-20T02:19:54.195Z,981.67
2016-11-20T02:20:54.213Z,981.67
2016-11-20T02:21:54.234Z,981.71
2016-11-20T02:22:54.273Z,981.7
2016-11-20T02:23:54.294Z,981.69
2016-11-20T02:24:54.324Z,981.64
2016-11-20T02:25:54.353Z,981.65
2016-11-20T02:26:54.379Z,981.65
2016-11-20T02:27:54.415Z,981.67
2016-11-20T02:28:54.431Z,981.62
2016-11-20T02:29:54.461Z,981.62
2016-11-20T02:30:54.486Z,981.59
2016-11-20T02:31:54.518Z,981.56
2016-11-20T02:32:54.538Z,981.5
2016-11-20T02:33:54.567Z,981.48
2016-11-20T02:34:54.592Z,981.46
2016-11-20T02:35:54.621Z,981.45
2016-11-20T02:36:54.654Z,981.43
2016-11-20T02:37:54.678Z,981.44
2016-11-20T02:38:54.703Z,981.43
2016-11-20T02:39:54.726Z,981.39
2016-11-20T02:40:54.760Z,981.35
2016-11-20T02:41:54.789Z,981.39
2016-11-20T02:42:54.820Z,981.37
2016-11-20T02:43:54.838Z,981.29
2016-11-20T02:44:54.867Z,981.27
2016-11-20T02:45:54.899Z,981.27
2016-11-20T02:46:54.925Z,981.27
2016-11-20T02:47:54.950Z,981.23
2016-11-20T02:48:54.975Z,981.19
2016-11-20T02:49:55.007Z,981.13
2016-11-20T02:50:55.028Z,981.12
2016-11-20T02:51:55.071Z,981.15
2016-11-20T02:52:55.089Z,981.13
2016-11-20T02:53:55.114Z,981.1
2016-11-20T02:54:55.139Z,981.08
2016-11-20T02:55:55.179Z,981.02
2016-11-20T02:56:55.192Z,981.04
2016-11-20T02:57:55.221Z,980.97
2016-11-20T02:58:55.247Z,980.97
2016-11-20T02:59:55.274Z,980.95
2016-11-20T03:00:55.299Z,980.89
2016-11-20T03:01:55.327Z,980.86
2016-11-20T03:02:55.356Z,980.81
2016-11-20T03:03:55.383Z,980.8
2016-11-20T03:04:55.406Z,980.74
2016-11-20T03:05:55.439Z,980.72
2016-11-20T03:06:55.463Z,980.77
2016-11-20T03:07:55.492Z,980.72
2016-11-20T03:08:55.521Z,980.7
2016-11-20T03:09:55.546Z,980.68
2016-11-20T03:10:55.574Z,980.67
2016-11-20T03:11:55.603Z,980.72
2016-11-20T03:12:55.628Z,980.67
2016-11-20T03:13:55.654Z,980.66
2016-11-20T03:14:55.681Z,980.64
2016-11-20T03:15:55.710Z,980.68
2016-11-20T03:16:55.739Z,980.69
2016-11-20T03:17:55.768Z,980.65
2016-11-20T03:18:55.788Z,980.59
2016-11-20T03:19:55.817Z,980.57
2016-11-20T03:20:55.846Z,980.6
2016-11-20T03:21:55.871Z,980.55
2016-11-20T03:22:55.890Z,980.51
2016-11-20T03:23:55.928Z,980.44
2016-11-20T03:24:55.952Z,980.43
2016-11-20T03:25:55.981Z,980.39
2016-11-20T03:26:56.006Z,980.41
2016-11-20T03:27:56.039Z,980.37
2016-11-20T03:28:56.063Z,980.45
2016-11-20T03:29:56.095Z,980.43
2016-11-20T03:30:56.117Z,980.35
2016-11-20T03:31:56.141Z,980.45
2016-11-20T03:32:56.170Z,980.45
2016-11-20T03:33:56.198Z,980.38
2016-11-20T03:34:56.223Z,980.34
2016-11-20T03:35:56.252Z,980.36
2016-11-20T03:36:56.281Z,980.31
2016-11-20T03:37:56.312Z,980.3
2016-11-20T03:38:56.334Z,980.27
2016-11-20T03:39:56.357Z,980.15
2016-11-20T03:40:56.391Z,980.16
2016-11-20T03:41:56.409Z,980.15
2016-11-20T03:42:56.435Z,980.11
2016-11-20T03:43:56.470Z,980.04
2016-11-20T03:44:56.489Z,980.07
2016-11-20T03:45:56.515Z,980.1
2016-11-20T03:46:56.551Z,980.04
2016-11-20T03:47:56.572Z,980.02
2016-11-20T03:48:56.600Z,979.99
2016-11-20T03:49:56.628Z,980.06
2016-11-20T03:50:56.653Z,980.01
2016-11-20T03:51:56.683Z,979.89
2016-11-20T03:52:56.707Z,979.87
2016-11-20T03:53:56.736Z,979.89
2016-11-20T03:54:56.765Z,979.86
2016-11-20T03:55:56.789Z,979.83
2016-11-20T03:56:56.814Z,979.8
2016-11-20T03:57:56.847Z,979.83
2016-11-20T03:58:56.872Z,979.82
2016-11-20T03:59:56.896Z,979.79
2016-11-20T04:00:56.924Z,979.81
2016-11-20T04:01:56.954Z,979.76
2016-11-20T04:02:56.978Z,979.69
2016-11-20T04:03:57.007Z,979.59
2016-11-20T04:04:57.032Z,979.67
2016-11-20T04:05:57.059Z,979.68
2016-11-20T04:06:57.084Z,979.61
2016-11-20T04:07:57.116Z,979.57
2016-11-20T04:08:57.138Z,979.62
2016-11-20T04:09:57.175Z,979.6
2016-11-20T04:10:57.191Z,979.62
2016-11-20T04:11:57.231Z,979.57
2016-11-20T04:12:57.251Z,979.56
2016-11-20T04:13:57.274Z,979.53
2016-11-20T04:14:57.298Z,979.58
2016-11-20T04:15:57.329Z,979.51
2016-11-20T04:16:57.356Z,979.54
2016-11-20T04:17:57.384Z,979.46
2016-11-20T04:18:57.413Z,979.53
2016-11-20T04:19:57.437Z,979.43
2016-11-20T04:20:57.462Z,979.52
2016-11-20T04:21:57.491Z,979.49
2016-11-20T04:22:57.519Z,979.47
2016-11-20T04:23:57.548Z,979.39
2016-11-20T04:24:57.570Z,979.39
2016-11-20T04:25:57.598Z,979.43
2016-11-20T04:26:57.627Z,979.45
2016-11-20T04:27:57.651Z,979.37
2016-11-20T04:28:57.680Z,979.35
2016-11-20T04:29:57.712Z,979.34
2016-11-20T04:30:57.736Z,979.31
2016-11-20T04:31:57.767Z,979.25
2016-11-20T04:32:57.785Z,979.32
2016-11-20T04:33:57.822Z,979.31
2016-11-20T04:34:57.844Z,979.3
2016-11-20T04:35:57.872Z,979.26
2016-11-20T04:36:57.893Z,979.26
2016-11-20T04:37:57.925Z,979.24
2016-11-20T04:38:57.950Z,979.2
2016-11-20T04:39:57.993Z,979.23
2016-11-20T04:40:58.004Z,979.18
2016-11-20T04:41:58.032Z,979.23
2016-11-20T04:42:58.059Z,979.24
2016-11-20T04:43:58.088Z,979.29
2016-11-20T04:44:58.113Z,979.26
2016-11-20T04:45:58.138Z,979.26
2016-11-20T04:46:58.161Z,979.31
2016-11-20T04:47:58.188Z,979.26
2016-11-20T04:48:58.221Z,979.24
2016-11-20T04:49:58.245Z,979.22
2016-11-20T04:50:58.274Z,979.23
2016-11-20T04:51:58.295Z,979.22
2016-11-20T04:52:58.323Z,979.2
2016-11-20T04:53:58.352Z,979.14
2016-11-20T04:54:58.373Z,979.1
2016-11-20T04:55:58.409Z,979.13
2016-11-20T04:56:58.433Z,979.12
2016-11-20T04:57:58.458Z,979.07
2016-11-20T04:58:58.487Z,979.08
2016-11-20T04:59:58.516Z,979.1
2016-11-20T05:00:58.541Z,979.08
2016-11-20T05:01:58.569Z,979.09
2016-11-20T05:02:58.589Z,979.07
2016-11-20T05:03:58.618Z,979.08
2016-11-20T05:04:58.643Z,979.09
2016-11-20T05:05:58.675Z,979.09
2016-11-20T05:06:58.704Z,979.1
2016-11-20T05:07:58.726Z,979.15
2016-11-20T05:08:58.753Z,979.1
2016-11-20T05:09:58.781Z,979.1
2016-11-20T05:10:58.810Z,979.15
2016-11-20T05:11:58.832Z,979.13
2016-11-20T05:12:58.861Z,979.18
2016-11-20T05:13:58.888Z,979.16
2016-11-20T05:14:58.916Z,979.13
2016-11-20T05:15:58.941Z,979.13
2016-11-20T05:16:58.970Z,979.16
2016-11-20T05:17:59.007Z,979.11
2016-11-20T05:18:59.024Z,979.12
2016-11-20T05:19:59.052Z,979.09
2016-11-20T05:20:59.073Z,979.1
2016-11-20T05:21:59.097Z,979.02
2016-11-20T05:22:59.128Z,979.03
2016-11-20T05:23:59.154Z,979.04
2016-11-20T05:24:59.179Z,979.01
2016-11-20T05:25:59.213Z,979.03
2016-11-20T05:26:59.232Z,978.99
2016-11-20T05:27:59.271Z,978.98
2016-11-20T05:28:59.287Z,978.99
2016-11-20T05:29:59.315Z,978.95
2016-11-20T05:30:59.340Z,979
2016-11-20T05:31:59.375Z,978.97
2016-11-20T05:32:59.397Z,979
2016-11-20T05:33:59.422Z,979.01
2016-11-20T05:34:59.446Z,979
2016-11-20T05:35:59.483Z,978.97
2016-11-20T05:36:59.503Z,978.96
2016-11-20T05:37:59.529Z,979
2016-11-20T05:38:59.559Z,978.97
2016-11-20T05:39:59.581Z,978.98
2016-11-20T05:40:59.614Z,978.97
2016-11-20T05:41:59.643Z,978.98
2016-11-20T05:42:59.668Z,979.03
2016-11-20T05:43:59.688Z,979.05
2016-11-20T05:44:59.716Z,979
2016-11-20T05:45:59.744Z,978.98
2016-11-20T05:46:59.771Z,978.95
2016-11-20T05:47:59.794Z,978.97
2016-11-20T05:48:59.823Z,978.95
2016-11-20T05:49:59.849Z,978.98
2016-11-20T05:50:59.880Z,978.94
2016-11-20T05:51:59.905Z,978.95
2016-11-20T05:52:59.943Z,978.94
2016-11-20T05:53:59.959Z,978.87
2016-11-20T05:54:59.987Z,978.87
2016-11-20T05:56:00.012Z,978.83
2016-11-20T05:57:00.045Z,978.83
2016-11-20T05:58:00.066Z,978.73
2016-11-20T05:59:00.098Z,978.68
2016-11-20T06:00:00.124Z,978.66
2016-11-20T06:01:00.152Z,978.65
2016-11-20T06:02:00.172Z,978.63
2016-11-20T06:03:00.201Z,978.66
2016-11-20T06:04:00.239Z,978.62
2016-11-20T06:05:00.254Z,978.66
2016-11-20T06:06:00.288Z,978.66
2016-11-20T06:07:00.307Z,978.64
2016-11-20T06:08:00.346Z,978.68
2016-11-20T06:09:00.365Z,978.71
2016-11-20T06:10:00.399Z,978.72
2016-11-20T06:11:00.415Z,978.73
2016-11-20T06:12:00.444Z,978.78
2016-11-20T06:13:00.473Z,978.77
2016-11-20T06:14:00.498Z,978.76
2016-11-20T06:15:00.531Z,978.71
2016-11-20T06:16:00.551Z,978.74
2016-11-20T06:17:00.580Z,978.8
2016-11-20T06:18:00.610Z,978.74
2016-11-20T06:19:00.638Z,978.75
2016-11-20T06:20:00.664Z,978.77
2016-11-20T06:21:00.692Z,978.75
2016-11-20T06:22:00.720Z,978.77
2016-11-20T06:23:00.749Z,978.77
2016-11-20T06:24:00.774Z,978.77
2016-11-20T06:25:00.796Z,978.81
2016-11-20T06:26:00.828Z,978.79
2016-11-20T06:27:00.857Z,978.8
2016-11-20T06:28:00.881Z,978.79
2016-11-20T06:29:00.910Z,978.79
2016-11-20T06:30:00.943Z,978.7
2016-11-20T06:31:00.964Z,978.73
2016-11-20T06:32:00.988Z,978.72
2016-11-20T06:33:01.022Z,978.66
2016-11-20T06:34:01.051Z,978.74
2016-11-20T06:35:01.073Z,978.72
2016-11-20T06:36:01.107Z,978.77
2016-11-20T06:37:01.128Z,978.75
2016-11-20T06:38:01.153Z,978.7
2016-11-20T06:39:01.187Z,978.7
2016-11-20T06:40:01.211Z,978.67
2016-11-20T06:41:01.233Z,978.68
2016-11-20T06:42:01.265Z,978.66
2016-11-20T06:43:01.289Z,978.68
2016-11-20T06:44:01.323Z,978.69
2016-11-20T06:45:01.350Z,978.67
2016-11-20T06:46:01.372Z,978.7
2016-11-20T06:47:01.400Z,978.68
2016-11-20T06:48:01.433Z,978.72
2016-11-20T06:49:01.458Z,978.69
2016-11-20T06:50:01.484Z,978.69
2016-11-20T06:51:01.514Z,978.67
2016-11-20T06:52:01.536Z,978.63
2016-11-20T06:53:01.565Z,978.65
2016-11-20T06:54:01.611Z,978.64
2016-11-20T06:55:01.624Z,978.61
2016-11-20T06:56:01.660Z,978.64
2016-11-20T06:57:01.676Z,978.64
2016-11-20T06:58:01.705Z,978.57
2016-11-20T06:59:01.729Z,978.53
2016-11-20T07:00:01.762Z,978.51
2016-11-20T07:01:01.783Z,978.52
2016-11-20T07:02:01.805Z,978.45
2016-11-20T07:03:01.837Z,978.43
2016-11-20T07:04:01.870Z,978.5
2016-11-20T07:05:01.898Z,978.49
2016-11-20T07:06:01.923Z,978.44
2016-11-20T07:07:01.951Z,978.41
2016-11-20T07:08:01.977Z,978.44
2016-11-20T07:09:02.001Z,978.44
2016-11-20T07:10:02.034Z,978.44
2016-11-20T07:11:02.054Z,978.38
2016-11-20T07:12:02.087Z,978.42
2016-11-20T07:13:02.116Z,978.39
2016-11-20T07:14:02.141Z,978.39
2016-11-20T07:15:02.170Z,978.32
2016-11-20T07:16:02.194Z,978.4
2016-11-20T07:17:02.224Z,978.36
2016-11-20T07:18:02.256Z,978.36
2016-11-20T07:19:02.277Z,978.43
2016-11-20T07:20:02.306Z,978.41
2016-11-20T07:21:02.334Z,978.4
2016-11-20T07:22:02.363Z,978.44
2016-11-20T07:23:02.393Z,978.36
2016-11-20T07:24:02.421Z,978.42
2016-11-20T07:25:02.446Z,978.42
2016-11-20T07:26:02.475Z,978.39
2016-11-20T07:27:02.498Z,978.4
2016-11-20T07:28:02.536Z,978.43
2016-11-20T07:29:02.553Z,978.36
2016-11-20T07:30:02.584Z,978.35
2016-11-20T07:31:02.607Z,978.34
2016-11-20T07:32:02.691Z,978.29
2016-11-20T07:33:02.664Z,978.32
2016-11-20T07:34:02.695Z,978.32
2016-11-20T07:35:02.721Z,978.2
2016-11-20T07:36:02.754Z,978.12
2016-11-20T07:37:02.779Z,978.17
2016-11-20T07:38:02.807Z,978.13
2016-11-20T07:39:02.832Z,978.03
2016-11-20T07:40:02.871Z,978.02
2016-11-20T07:41:02.890Z,977.96
2016-11-20T07:42:02.914Z,977.98
2016-11-20T07:43:02.943Z,978
2016-11-20T07:44:02.972Z,977.98
2016-11-20T07:45:02.999Z,977.97
2016-11-20T07:46:03.029Z,977.95
2016-11-20T07:47:03.053Z,977.91
2016-11-20T07:48:03.077Z,977.94
2016-11-20T07:49:03.112Z,977.87
2016-11-20T07:50:03.141Z,977.85
2016-11-20T07:51:03.160Z,977.78
2016-11-20T07:52:03.193Z,977.77
2016-11-20T07:53:03.217Z,977.71
2016-11-20T07:54:03.246Z,977.77
2016-11-20T07:55:03.275Z,977.82
2016-11-20T07:56:03.300Z,977.82
2016-11-20T07:57:03.332Z,977.89
2016-11-20T07:58:03.357Z,977.87
2016-11-20T07:59:03.386Z,977.87
2016-11-20T08:00:03.414Z,977.92
2016-11-20T08:01:03.439Z,977.84
2016-11-20T08:02:03.468Z,977.79
2016-11-20T08:03:03.496Z,977.76
2016-11-20T08:04:03.514Z,977.72
2016-11-20T08:05:03.545Z,977.69
2016-11-20T08:06:03.583Z,977.61
2016-11-20T08:07:03.607Z,977.57
2016-11-20T08:08:03.631Z,977.61
2016-11-20T08:09:03.656Z,977.57
2016-11-20T08:10:03.689Z,977.54
2016-11-20T08:11:03.714Z,977.58
2016-11-20T08:12:03.745Z,977.46
2016-11-20T08:13:03.767Z,977.52
2016-11-20T08:14:03.795Z,977.57
2016-11-20T08:15:03.829Z,977.56
2016-11-20T08:16:03.863Z,977.64
2016-11-20T08:17:03.882Z,977.59
2016-11-20T08:18:03.909Z,977.63
2016-11-20T08:19:03.938Z,977.58
2016-11-20T08:20:03.959Z,977.57
2016-11-20T08:21:03.987Z,977.64
2016-11-20T08:22:04.019Z,977.61
2016-11-20T08:23:04.049Z,977.67
2016-11-20T08:24:04.070Z,977.72
2016-11-20T08:25:04.098Z,977.67
2016-11-20T08:26:04.138Z,977.66
2016-11-20T08:27:04.159Z,977.7
2016-11-20T08:28:04.191Z,977.83
2016-11-20T08:29:04.203Z,977.8
2016-11-20T08:30:04.237Z,977.64
2016-11-20T08:31:04.265Z,977.62
2016-11-20T08:32:04.294Z,977.68
2016-11-20T08:33:04.318Z,977.72
2016-11-20T08:34:04.352Z,977.53
2016-11-20T08:35:04.377Z,977.49
2016-11-20T08:36:04.401Z,977.56
2016-11-20T08:37:04.429Z,977.48
2016-11-20T08:38:04.462Z,977.51
2016-11-20T08:39:04.490Z,977.53
2016-11-20T08:40:04.511Z,977.47
2016-11-20T08:41:04.544Z,977.54
2016-11-20T08:42:04.573Z,977.65
2016-11-20T08:43:04.602Z,977.6
2016-11-20T08:44:04.634Z,977.65
2016-11-20T08:45:04.658Z,977.63
2016-11-20T08:46:04.679Z,977.62
2016-11-20T08:47:04.709Z,977.66
2016-11-20T08:48:04.737Z,977.6
2016-11-20T08:49:04.761Z,977.66
2016-11-20T08:50:04.796Z,977.69
2016-11-20T08:51:04.819Z,977.67
2016-11-20T08:52:04.844Z,977.72
2016-11-20T08:53:04.872Z,977.71
2016-11-20T08:54:04.906Z,977.65
2016-11-20T08:55:04.930Z,977.62
2016-11-20T08:56:04.962Z,977.64
2016-11-20T08:57:04.983Z,977.59
2016-11-20T08:58:05.016Z,977.61
2016-11-20T08:59:05.038Z,977.67
2016-11-20T09:00:05.069Z,977.62
2016-11-20T09:01:05.094Z,977.59
2016-11-20T09:02:05.127Z,977.53
2016-11-20T09:03:05.154Z,977.66
2016-11-20T09:04:05.181Z,977.73
2016-11-20T09:05:05.209Z,977.58
2016-11-20T09:06:05.234Z,977.78
2016-11-20T09:07:05.263Z,977.8
2016-11-20T09:08:05.296Z,977.72
2016-11-20T09:09:05.320Z,977.72
2016-11-20T09:10:05.345Z,977.74
2016-11-20T09:11:05.373Z,977.64
2016-11-20T09:12:05.415Z,977.67
2016-11-20T09:13:05.433Z,977.73
2016-11-20T09:14:05.456Z,977.66
2016-11-20T09:15:05.485Z,977.68
2016-11-20T09:16:05.514Z,977.7
2016-11-20T09:17:05.542Z,977.76
2016-11-20T09:18:05.578Z,977.73
2016-11-20T09:19:05.600Z,977.73
2016-11-20T09:20:05.623Z,977.78
2016-11-20T09:21:05.648Z,977.67
2016-11-20T09:22:05.681Z,977.84
2016-11-20T09:23:05.706Z,977.68
2016-11-20T09:24:05.745Z,977.72
2016-11-20T09:25:05.763Z,977.91
2016-11-20T09:26:05.788Z,977.93
2016-11-20T09:27:05.821Z,977.66
2016-11-20T09:28:05.849Z,977.8
2016-11-20T09:29:05.876Z,977.75
2016-11-20T09:30:05.911Z,977.72
2016-11-20T09:31:05.927Z,977.83
2016-11-20T09:32:05.967Z,977.82
2016-11-20T09:33:05.989Z,977.8
2016-11-20T09:34:06.014Z,977.98
2016-11-20T09:35:06.047Z,977.94
2016-11-20T09:36:06.065Z,978.05
2016-11-20T09:37:06.099Z,977.99
2016-11-20T09:38:06.131Z,977.93
2016-11-20T09:39:06.154Z,978.12
2016-11-20T09:40:06.178Z,978.16
2016-11-20T09:41:06.204Z,978.18
2016-11-20T09:42:06.236Z,978.02
2016-11-20T09:43:06.261Z,978.16
2016-11-20T09:44:06.303Z,978.05
2016-11-20T09:45:06.322Z,978.14
2016-11-20T09:46:06.346Z,978.09
2016-11-20T09:47:06.379Z,978.09
2016-11-20T09:48:06.778Z,978.15
2016-11-20T09:49:06.433Z,978.25
2016-11-20T09:50:06.457Z,978.16
2016-11-20T09:51:06.486Z,978.29
2016-11-20T09:52:06.514Z,978.26
2016-11-20T09:53:06.547Z,978.22
2016-11-20T09:54:06.575Z,978.34
2016-11-20T09:55:06.600Z,978.28
2016-11-20T09:56:06.630Z,978.38
2016-11-20T09:57:06.658Z,978.17
2016-11-20T09:58:06.688Z,978.23
2016-11-20T09:59:06.711Z,978.37
2016-11-20T10:00:06.745Z,978.4
2016-11-20T10:01:06.771Z,978.34
2016-11-20T10:02:06.793Z,978.32
2016-11-20T10:03:06.826Z,978.35
2016-11-20T10:04:06.851Z,978.42
2016-11-20T10:05:06.879Z,978.35
2016-11-20T10:06:06.908Z,978.28
2016-11-20T10:07:06.937Z,978.32
2016-11-20T10:08:06.978Z,978.39
2016-11-20T10:09:06.991Z,978.56
2016-11-20T10:10:07.019Z,978.53
2016-11-20T10:11:07.047Z,978.41
2016-11-20T10:12:07.073Z,978.41
2016-11-20T10:13:07.101Z,978.5
2016-11-20T10:14:07.134Z,978.31
2016-11-20T10:15:07.160Z,978.33
2016-11-20T10:16:07.194Z,978.41
2016-11-20T10:17:07.216Z,978.41
2016-11-20T10:18:07.254Z,978.44
2016-11-20T10:19:07.274Z,978.41
2016-11-20T10:20:07.311Z,978.47
2016-11-20T10:21:07.331Z,978.47
2016-11-20T10:22:07.356Z,978.44
2016-11-20T10:23:07.384Z,978.51
2016-11-20T10:24:07.410Z,978.5
2016-11-20T10:25:07.437Z,978.57
2016-11-20T10:26:07.470Z,978.62
2016-11-20T10:27:07.491Z,978.51
2016-11-20T10:28:07.527Z,978.62
2016-11-20T10:29:07.550Z,978.62
2016-11-20T10:30:07.578Z,978.67
2016-11-20T10:31:07.602Z,978.71
2016-11-20T10:32:07.635Z,978.77
2016-11-20T10:33:07.660Z,978.73
2016-11-20T10:34:07.694Z,978.66
2016-11-20T10:35:07.713Z,978.64
2016-11-20T10:36:07.745Z,978.59
2016-11-20T10:37:07.774Z,978.71
2016-11-20T10:38:07.799Z,978.5
2016-11-20T10:39:07.831Z,978.66
2016-11-20T10:40:07.855Z,978.68
2016-11-20T10:41:07.889Z,978.65
2016-11-20T10:42:07.919Z,978.66
2016-11-20T10:43:07.942Z,978.64
2016-11-20T10:44:07.969Z,978.75
2016-11-20T10:45:07.995Z,978.71
2016-11-20T10:46:08.029Z,978.73
2016-11-20T10:47:08.049Z,978.82
2016-11-20T10:48:08.078Z,978.73
2016-11-20T10:49:08.111Z,978.8
2016-11-20T10:50:08.136Z,978.73
2016-11-20T10:51:08.164Z,978.69
2016-11-20T10:52:08.195Z,978.64
2016-11-20T10:53:08.222Z,978.67
2016-11-20T10:54:08.251Z,978.6
2016-11-20T10:55:08.279Z,978.66
2016-11-20T10:56:08.304Z,978.7
2016-11-20T10:57:08.333Z,978.79
2016-11-20T10:58:08.371Z,978.76
2016-11-20T10:59:08.383Z,978.73
2016-11-20T11:00:08.414Z,978.81
2016-11-20T11:01:08.442Z,978.81
2016-11-20T11:02:08.470Z,978.78
2016-11-20T11:03:08.495Z,978.76
2016-11-20T11:04:08.530Z,978.7
2016-11-20T11:05:08.558Z,978.76
2016-11-20T11:06:08.583Z,978.75
2016-11-20T11:07:08.612Z,978.76
2016-11-20T11:08:08.641Z,978.78
2016-11-20T11:09:08.665Z,978.68
2016-11-20T11:10:08.694Z,978.72
2016-11-20T11:11:08.724Z,978.74
2016-11-20T11:12:08.752Z,978.72
2016-11-20T11:13:08.788Z,978.73
2016-11-20T11:14:08.806Z,978.69
2016-11-20T11:15:08.833Z,978.67
2016-11-20T11:16:08.862Z,978.64
2016-11-20T11:17:08.893Z,978.69
2016-11-20T11:18:08.927Z,978.79
2016-11-20T11:19:08.944Z,978.75
2016-11-20T11:20:08.983Z,978.65
2016-11-20T11:21:09.002Z,978.71
2016-11-20T11:22:09.027Z,978.73
2016-11-20T11:23:09.058Z,978.77
2016-11-20T11:24:09.087Z,978.76
2016-11-20T11:25:09.110Z,978.76
2016-11-20T11:26:09.142Z,978.73
2016-11-20T11:27:09.167Z,978.7
2016-11-20T11:28:09.195Z,978.8
2016-11-20T11:29:09.224Z,978.74
2016-11-20T11:30:09.249Z,978.75
2016-11-20T11:31:09.283Z,978.72
2016-11-20T11:32:09.311Z,978.76
2016-11-20T11:33:09.337Z,978.77
2016-11-20T11:34:09.364Z,978.78
2016-11-20T11:35:09.394Z,978.73
2016-11-20T11:36:09.417Z,978.72
2016-11-20T11:37:09.452Z,978.65
2016-11-20T11:38:09.480Z,978.67
2016-11-20T11:39:09.503Z,978.7
2016-11-20T11:40:09.530Z,978.68
2016-11-20T11:41:09.559Z,978.71
2016-11-20T11:42:09.602Z,978.7
2016-11-20T11:43:09.619Z,978.68
2016-11-20T11:44:09.645Z,978.65
2016-11-20T11:45:09.674Z,978.71
2016-11-20T11:46:09.699Z,978.73
2016-11-20T11:47:09.725Z,978.71
2016-11-20T11:48:09.759Z,978.64
2016-11-20T11:49:09.785Z,978.67
2016-11-20T11:50:09.820Z,978.69
2016-11-20T11:51:09.843Z,978.64
2016-11-20T11:52:09.871Z,978.53
2016-11-20T11:53:09.896Z,978.57
2016-11-20T11:54:09.920Z,978.65
2016-11-20T11:55:09.958Z,978.68
2016-11-20T11:56:09.978Z,978.66
2016-11-20T11:57:10.015Z,978.67
2016-11-20T11:58:10.033Z,978.56
2016-11-20T11:59:10.069Z,978.58
2016-11-20T12:00:10.094Z,978.55
2016-11-20T12:01:10.123Z,978.49
2016-11-20T12:02:10.153Z,978.6
2016-11-20T12:03:10.180Z,978.63
2016-11-20T12:04:10.204Z,978.65
2016-11-20T12:05:10.234Z,978.71
2016-11-20T12:06:10.259Z,978.67
2016-11-20T12:07:10.293Z,978.63
2016-11-20T12:08:10.321Z,978.58
2016-11-20T12:09:10.346Z,978.62
2016-11-20T12:10:10.378Z,978.58
2016-11-20T12:11:10.403Z,978.59
2016-11-20T12:12:10.426Z,978.66
2016-11-20T12:13:10.469Z,978.61
2016-11-20T12:14:10.489Z,978.54
2016-11-20T12:15:10.518Z,978.66
2016-11-20T12:16:10.547Z,978.64
2016-11-20T12:17:10.575Z,978.66
2016-11-20T12:18:10.602Z,978.63
2016-11-20T12:19:10.621Z,978.57
2016-11-20T12:20:10.664Z,978.61
2016-11-20T12:21:10.678Z,978.55
2016-11-20T12:22:10.714Z,978.53
2016-11-20T12:23:10.736Z,978.51
2016-11-20T12:24:10.769Z,978.51
2016-11-20T12:25:10.789Z,978.47
2016-11-20T12:26:10.826Z,978.54
2016-11-20T12:27:10.851Z,978.6
2016-11-20T12:28:10.908Z,978.6
2016-11-20T12:29:10.905Z,978.57
2016-11-20T12:30:10.937Z,978.6
2016-11-20T12:31:10.963Z,978.59
2016-11-20T12:32:10.995Z,978.54